Map

Track Data

SID SEASON NUMBER BASIN SUBBASIN NAME ISO_TIME NATURE LAT LON WMO_WIND WMO_PRES WMO_AGENCY TRACK_TYPE DIST2LAND LANDFALL IFLAG USA_AGENCY USA_ATCF_ID USA_LAT USA_LON USA_RECORD USA_STATUS USA_WIND USA_PRES USA_SSHS USA_R34_NE USA_R34_SE USA_R34_SW USA_R34_NW USA_R50_NE USA_R50_SE USA_R50_SW USA_R50_NW USA_R64_NE USA_R64_SE USA_R64_SW USA_R64_NW USA_POCI USA_ROCI USA_RMW USA_EYE TOKYO_LAT TOKYO_LON TOKYO_GRADE TOKYO_WIND TOKYO_PRES TOKYO_R50_DIR TOKYO_R50_LONG TOKYO_R50_SHORT TOKYO_R30_DIR TOKYO_R30_LONG TOKYO_R30_SHORT TOKYO_LAND CMA_LAT CMA_LON CMA_CAT CMA_WIND CMA_PRES HKO_LAT HKO_LON HKO_CAT HKO_WIND HKO_PRES NEWDELHI_LAT NEWDELHI_LON NEWDELHI_GRADE NEWDELHI_WIND NEWDELHI_PRES NEWDELHI_CI NEWDELHI_DP NEWDELHI_POCI REUNION_LAT REUNION_LON REUNION_TYPE REUNION_WIND REUNION_PRES REUNION_TNUM REUNION_CI REUNION_RMW REUNION_R34_NE REUNION_R34_SE REUNION_R34_SW REUNION_R34_NW REUNION_R50_NE REUNION_R50_SE REUNION_R50_SW REUNION_R50_NW REUNION_R64_NE REUNION_R64_SE REUNION_R64_SW REUNION_R64_NW BOM_LAT BOM_LON BOM_TYPE BOM_WIND BOM_PRES BOM_TNUM BOM_CI BOM_RMW BOM_R34_NE BOM_R34_SE BOM_R34_SW BOM_R34_NW BOM_R50_NE BOM_R50_SE BOM_R50_SW BOM_R50_NW BOM_R64_NE BOM_R64_SE BOM_R64_SW BOM_R64_NW BOM_ROCI BOM_POCI BOM_EYE BOM_POS_METHOD BOM_PRES_METHOD NADI_LAT NADI_LON NADI_CAT NADI_WIND NADI_PRES WELLINGTON_LAT WELLINGTON_LON WELLINGTON_WIND WELLINGTON_PRES DS824_LAT DS824_LON DS824_STAGE DS824_WIND DS824_PRES TD9636_LAT TD9636_LON TD9636_STAGE TD9636_WIND TD9636_PRES TD9635_LAT TD9635_LON TD9635_WIND TD9635_PRES TD9635_ROCI NEUMANN_LAT NEUMANN_LON NEUMANN_CLASS NEUMANN_WIND NEUMANN_PRES MLC_LAT MLC_LON MLC_CLASS MLC_WIND MLC_PRES USA_GUST BOM_GUST BOM_GUST_PER REUNION_GUST REUNION_GUST_PER USA_SEAHGT USA_SEARAD_NE USA_SEARAD_SE USA_SEARAD_SW USA_SEARAD_NW STORM_SPEED STORM_DIR
1979035S19042 1979 8 SI MM DORA 1979-02-04 06:00:00 TS -18.6600 41.5200 28 997 reunion main 265 244 O____O___OO_O_ jtwc_sh SH121979 -19.1000 41.2000 -1 -18.0000 42.0000 2 28 997 2.50000 2.50000 -19.1000 41.2000 TC 25 -19.1000 41.2000 1 -18.0000 42.0000 TC 35 997 4 108
1979035S19042 1979 8 SI MM DORA 1979-02-04 09:00:00 TS -18.7290 41.7451 main 244 225 P____P___PP_P_ SH121979 -19.1401 41.4100 -1 -18.1026 42.2599 2 -19.1401 41.4100 TC 25 -19.1595 41.3859 1 -18.1026 42.2599 TC 40 4 109
1979035S19042 1979 8 SI MM DORA 1979-02-04 12:00:00 TS -18.8050 41.9535 reunion main 215 207 O____O___OP_O_ jtwc_sh SH121979 -19.2000 41.6000 -1 -18.2000 42.5000 99 9.90000 -19.2000 41.6000 TC 25 -19.2252 41.5675 1 -18.2000 42.5000 TC 45 4 114
1979035S19042 1979 8 SI MM DORA 1979-02-04 15:00:00 TS -18.8946 42.1341 main 207 191 P____P___PP_P_ SH121979 -19.2925 41.7575 -1 -18.2925 42.7076 99 -19.2925 41.7575 TC 25 -19.3032 41.7403 1 -18.2925 42.7076 TC 45 4 121
1979035S19042 1979 8 SI MM DORA 1979-02-04 18:00:00 TS -19.0000 42.3000 reunion main 191 176 O____O___OO_O_ jtwc_sh SH121979 -19.4000 41.9000 -1 -18.4000 42.9000 99 9.90000 -19.4000 41.9000 TC 25 -19.4000 41.9000 1 -18.4000 42.9000 TC 45 4 125
1979035S19042 1979 8 SI MM DORA 1979-02-04 21:00:00 TS -19.1177 42.4747 main 176 168 P____P___PP_P_ SH121979 -19.4925 42.0575 -1 -18.5425 43.1075 99 -19.4925 42.0575 TC 25 -19.5187 42.0434 1 -18.5425 43.1075 TC 42 4 128
1979035S19042 1979 8 SI MM DORA 1979-02-05 00:00:00 TS -19.2500 42.6345 reunion main 168 150 O____O___OP_O_ jtwc_sh SH121979 -19.6000 42.2000 -1 -18.7000 43.3000 99 9.90000 -19.6000 42.2000 TC 25 -19.6499 42.1725 1 -18.7000 43.3000 TC 40 4 135
1979035S19042 1979 8 SI MM DORA 1979-02-05 03:00:00 TS -19.3932 42.7641 main 150 143 P____P___PP_P_ SH121979 -19.7575 42.3075 -1 -18.8350 43.4576 99 -19.7575 42.3075 TC 25 -19.7812 42.2903 1 -18.8350 43.4576 TC 35 4 141
1979035S19042 1979 8 SI MM DORA 1979-02-05 06:00:00 TS -19.5400 42.8800 24 1000 reunion main 143 137 O____O___OO_O_ jtwc_sh SH121979 -19.9000 42.4000 -1 -19.0000 43.6000 2 24 1000 2.00000 2.00000 -19.9000 42.4000 TC 25 -19.9000 42.4000 1 -19.0000 43.6000 TC 30 1000 4 141
1979035S19042 1979 8 SI MM DORA 1979-02-05 09:00:00 TS -19.6762 43.0083 main 142 130 P____P___PP_P_ SH121979 -19.9575 42.5000 -1 -19.2425 43.7649 2 -19.9575 42.5000 TC 25 -19.9812 42.5114 1 -19.2425 43.7649 TC 32 4 140
1979035S19042 1979 8 SI MM DORA 1979-02-05 12:00:00 TS -19.8100 43.1230 reunion main 130 115 O____O___OP_O_ jtwc_sh SH121979 -20.0000 42.6000 -1 -19.5000 43.9000 99 9.90000 -20.0000 42.6000 TC 25 -20.0500 42.6152 1 -19.5000 43.9000 TC 35 3 143
1979035S19042 1979 8 SI MM DORA 1979-02-05 15:00:00 TS -19.9377 43.2143 main 115 94 P____P___PP_P_ SH121979 -20.0925 42.7075 -1 -19.6925 43.9726 99 -20.0925 42.7075 TC 25 -20.1187 42.7114 1 -19.6925 43.9726 TC 32 3 151
1979035S19042 1979 8 SI MM DORA 1979-02-05 18:00:00 TS -20.0800 43.2800 reunion main 94 89 O____O___OO_O_ jtwc_sh SH121979 -20.2000 42.8000 -1 -19.9000 44.0000 99 9.90000 -20.2000 42.8000 TC 25 -20.2000 42.8000 1 -19.9000 44.0000 TC 30 3 163
1979035S19042 1979 8 SI MM DORA 1979-02-05 21:00:00 TS -20.2569 43.3179 main 83 76 P____P___PP_P_ SH121979 -20.2925 42.8500 -1 -20.1925 44.0075 99 -20.2925 42.8500 TC 25 -20.3146 42.8741 1 -20.1925 44.0075 TC 27 4 169
1979035S19042 1979 8 SI MM DORA 1979-02-06 00:00:00 TS -20.4485 43.3485 reunion main 76 56 O____O___OP_O_ jtwc_sh SH121979 -20.4000 42.9000 -1 -20.5000 44.0000 99 9.90000 -20.4000 42.9000 TC 25 -20.4424 42.9426 1 -20.5000 44.0000 TC 25 4 169
1979035S19042 1979 8 SI MM DORA 1979-02-06 03:00:00 TS -20.6468 43.4029 main 56 41 P____P___PP_P_ SH121979 -20.5500 42.9925 -1 -20.7800 44.0075 99 -20.5500 42.9925 TC 25 -20.5740 43.0147 1 -20.7800 44.0075 TC 25 4 164
1979035S19042 1979 8 SI MM DORA 1979-02-06 06:00:00 TS -20.8200 43.4600 20 1003 reunion main 41 41 O____O___OO_O_ jtwc_sh SH121979 -20.7000 43.1000 -1 -21.0000 44.0000 2 20 1003 1.50000 1.50000 -20.7000 43.1000 TC 25 -20.7000 43.1000 1 -21.0000 44.0000 TC 25 1003 3 162
1979035S19042 1979 8 SI MM DORA 1979-02-06 09:00:00 TS -20.9277 43.5068 main 41 41 P____P___PP_P_ SH121979 -20.8075 43.1925 -1 -21.1225 43.9650 2 -20.8075 43.1925 TC 25 -20.7788 43.2189 1 -21.1225 43.9650 TC 25 2 156
1979035S19042 1979 8 SI MM DORA 1979-02-06 12:00:00 TS -21.0110 43.5500 reunion main 31 30 O____O___OP_O_ jtwc_sh SH121979 -20.9000 43.3000 -1 -21.2000 43.9000 99 9.90000 -20.9000 43.3000 TC 25 -20.8551 43.3502 1 -21.2000 43.9000 TC 25 2 152
1979035S19042 1979 8 SI MM DORA 1979-02-06 15:00:00 TS -21.0958 43.5993 main 30 22 P____P___PP_P_ SH121979 -20.9625 43.4501 -1 -21.3000 43.8075 99 -20.9625 43.4501 TC 25 -20.9538 43.4814 1 -21.3000 43.8075 TC 25 2 157
1979035S19042 1979 8 SI MM DORA 1979-02-06 18:00:00 TS -21.2200 43.6400 reunion main 22 0 O____O___OO_O_ jtwc_sh SH121979 -21.1000 43.6000 -1 -21.4000 43.7000 99 9.90000 -21.1000 43.6000 TC 25 -21.1000 43.6000 1 -21.4000 43.7000 TC 25 4 169
1979035S19042 1979 8 SI MM DORA 1979-02-06 21:00:00 TS -21.4557 43.6776 main 0 0 P____P___PP_P_ SH121979 -21.4350 43.7149 -1 -21.5075 43.6000 99 -21.4350 43.7149 TC 25 -21.3935 43.7581 1 -21.5075 43.6000 TC 25 5 174
1979035S19042 1979 8 SI MM DORA 1979-02-07 00:00:00 TS -21.7049 43.6985 reunion main 0 0 O____O___OP_O_ jtwc_sh SH121979 -21.8000 43.8000 -1 -21.6000 43.5000 99 9.90000 -21.8000 43.8000 TC 25 -21.7246 43.8923 1 -21.6000 43.5000 TC 25 4 175
1979035S19042 1979 8 SI MM DORA 1979-02-07 03:00:00 TS -21.8996 43.7211 main 0 0 P____P___PP_P_ SH121979 -22.0749 43.9101 -1 -21.6650 43.4150 99 -22.0749 43.9101 TC 25 -22.0183 43.9554 1 -21.6650 43.4150 TC 25 3 189
1979035S19042 1979 8 SI MM DORA 1979-02-07 06:00:00 TS -22.0000 43.6600 reunion main 0 0 O____O___OO_O_ jtwc_sh SH121979 -22.2000 43.9000 -1 -21.7000 43.3000 6 9.90000 -22.2000 43.9000 TC 25 -22.2000 43.9000 1 -21.7000 43.3000 TC 25 3 256
1979035S19042 1979 8 SI MM DORA 1979-02-07 09:00:00 TS -21.9616 43.4400 main 0 0 P____P___PP_P_ SH121979 -22.1025 43.6674 -1 -21.7150 43.1150 6 -22.1025 43.6674 TC 25 -22.1731 43.6350 1 -21.7150 43.1150 TC 25 5 288
1979035S19042 1979 8 SI MM DORA 1979-02-07 12:00:00 TS -21.8458 43.1318 reunion main 30 30 O____O___OP_O_ jtwc_sh SH121979 -21.9000 43.3000 -1 -21.7000 42.9000 99 9.90000 -21.9000 43.3000 TC 25 -22.0288 43.2588 1 -21.7000 42.9000 TC 25 6 291
1979035S19042 1979 8 SI MM DORA 1979-02-07 15:00:00 TS -21.7331 42.8017 main 61 61 P____P___PP_P_ SH121979 -21.7502 42.8774 -1 -21.6725 42.7000 99 -21.7502 42.8774 TC 25 -21.8200 42.8534 1 -21.6725 42.7000 TC 25 6 293
1979035S19042 1979 8 SI MM DORA 1979-02-07 18:00:00 TS -21.6000 42.5000 reunion main 93 93 O____O___OO_O_ jtwc_sh SH121979 -21.6000 42.5000 -1 -21.6000 42.5000 99 9.90000 -21.6000 42.5000 TC 25 -21.6000 42.5000 1 -21.6000 42.5000 TC 25 6 301
1979035S19042 1979 8 SI MM DORA 1979-02-07 21:00:00 TS -21.4518 42.2889 main 117 117 P____P___PP_P_ SH121979 -21.4498 42.3051 -1 -21.4650 42.2699 99 -21.4498 42.3051 TC 25 -21.4293 42.2943 1 -21.4650 42.2699 TC 25 4 313
1979035S19042 1979 8 SI MM DORA 1979-02-08 00:00:00 TS -21.2924 42.1506 reunion main 135 135 O____O___OP_O_ jtwc_sh SH121979 -21.3000 42.2000 -1 -21.3000 42.1000 99 9.90000 -21.3000 42.2000 TC 25 -21.2621 42.1528 1 -21.3000 42.1000 TC 25 4 329
1979035S19042 1979 8 SI MM DORA 1979-02-08 03:00:00 TS -21.1367 42.0830 main 148 148 P____P___PP_P_ SH121979 -21.1350 42.0775 -1 -21.1499 42.1002 99 -21.1350 42.0775 TC 25 -21.1138 42.0599 1 -21.1499 42.1002 TC 25 3 340
1979035S19042 1979 8 SI MM DORA 1979-02-08 06:00:00 TS -21.0000 42.0400 reunion main 161 161 O____O___OO_O_ jtwc_sh SH121979 -21.0000 42.0000 -1 -21.0000 42.1000 6 9.90000 -21.0000 42.0000 TC 25 -21.0000 42.0000 1 -21.0000 42.1000 TC 25 3 332
1979035S19042 1979 8 SI MM DORA 1979-02-08 09:00:00 TS -20.9132 41.9591 main 165 165 P____P___PP_P_ SH121979 -20.9275 41.9925 -1 -20.8800 41.9301 6 -20.9275 41.9925 TC 25 -20.9512 41.9505 1 -20.8800 41.9301 TC 25 2 317
1979035S19042 1979 8 SI MM DORA 1979-02-08 12:00:00 TS -20.8270 41.8655 reunion main 179 179 O____O___OP_O_ jtwc_sh SH121979 -20.9000 42.0000 -1 -20.7000 41.7000 99 9.90000 -20.9000 42.0000 TC 25 -20.9349 41.9277 1 -20.7000 41.7000 TC 25 3 319
1979035S19042 1979 8 SI MM DORA 1979-02-08 15:00:00 TS -20.6943 41.7602 main 192 192 P____P___PP_P_ SH121979 -20.9075 41.9575 -1 -20.3650 41.4848 99 -20.9075 41.9575 TC 25 -20.9262 41.9161 1 -20.3650 41.4848 TC 25 3 326
1979035S19042 1979 8 SI MM DORA 1979-02-08 18:00:00 TS -20.5400 41.6600 reunion main 212 212 O____O___OO_O_ jtwc_sh SH121979 -20.9000 41.9000 -1 -20.0000 41.3000 99 9.90000 -20.9000 41.9000 TC 25 -20.9000 41.9000 1 -20.0000 41.3000 TC 25 4 332
1979035S19042 1979 8 SI MM DORA 1979-02-08 21:00:00 TS -20.3843 41.5808 main 226 226 P____P___PP_P_ SH121979 -20.8150 41.8500 -1 -19.7350 41.1776 99 -20.8150 41.8500 TC 25 -20.8216 41.8490 1 -19.7350 41.1776 TC 25 3 337
1979035S19042 1979 8 SI MM DORA 1979-02-09 00:00:00 TS -20.2245 41.5185 reunion main 247 247 O____O___OP_O_ jtwc_sh SH121979 -20.7000 41.8000 -1 -19.5000 41.1000 99 9.90000 -20.7000 41.8000 TC 25 -20.7225 41.7924 1 -19.5000 41.1000 TC 25 3 341
1979035S19042 1979 8 SI MM DORA 1979-02-09 03:00:00 TS -20.0564 41.4589 main 253 253 P____P___PP_P_ SH121979 -20.6000 41.7425 -1 -19.2350 41.0350 99 -20.6000 41.7425 TC 25 -20.6122 41.7396 1 -19.2350 41.0350 TC 25 2 347
1979035S19042 1979 8 SI MM DORA 1979-02-09 06:00:00 TS -20.0000 41.4667 reunion main 260 260 O____O___OO_O_ jtwc_sh SH121979 -20.5000 41.7000 -1 -19.0000 41.0000 6 9.90000 -20.5000 41.7000 TC 25 -20.5000 41.7000 1 -19.0000 41.0000 TC 25 1 47
1979035S19042 1979 8 SI MM DORA 1979-02-09 09:00:00 TS -20.0096 41.5168 main 260 245 P____P___PP_P_ SH121979 -20.4000 41.6925 -1 -18.8344 40.9893 6 -20.4000 41.6925 TC 25 -20.3959 41.6898 1 -18.8344 40.9893 TC 25 1 119
1979035S19042 1979 8 SI MM DORA 1979-02-09 12:00:00 TS -20.0693 41.5979 reunion main 245 230 O____O___OP_O_ jtwc_sh SH121979 -20.3000 41.7000 -1 -18.7000 41.0000 99 9.90000 -20.3000 41.7000 TC 25 -20.2925 41.6926 1 -18.7000 41.0000 TC 25 3 137
1979035S19042 1979 8 SI MM DORA 1979-02-09 15:00:00 TS -20.1926 41.6997 main 230 230 P____P___PP_P_ SH121979 -20.1925 41.7000 -1 -18.5234 40.9772 99 -20.1925 41.7000 TC 25 -20.1928 41.6991 1 -18.5234 40.9772 TC 1 107
1979035S19042 1979 8 SI MM DORA 1979-02-09 18:00:00 TS -20.1000 41.7000 reunion main 236 236 O____P___OO_P_ jtwc_sh SH121979 -20.1000 41.7000 -1 -18.3289 40.9430 99 -20.1000 41.7000 TC 25 -20.1000 41.7000 1 -18.3289 40.9430 TC 1 0
1979035S19042 1979 8 SI MM DORA 1979-02-09 21:00:00 TS -20.0596 41.6922 main 236 236 P____P___PP_P_ SH121979 -20.0500 41.7075 -1 -18.1221 40.9071 99 -20.0500 41.7075 TC 25 -20.0787 41.6617 1 -18.1221 40.9071 TC 1 0
1979035S19042 1979 8 SI MM DORA 1979-02-10 00:00:00 TS -20.0183 41.6732 reunion main 244 244 O____P___OP_P_ jtwc_sh SH121979 -20.0000 41.7000 -1 -17.9085 40.8789 99 -20.0000 41.7000 TC 25 -20.0549 41.6196 1 -17.9085 40.8789 TC 1 332
1979035S19042 1979 8 SI MM DORA 1979-02-10 03:00:00 TS -19.9612 41.6259 main 252 252 P____P___PP_P_ SH121979 -19.9525 41.6424 -1 -17.6939 40.8679 99 -19.9525 41.6424 TC 25 -19.9787 41.5928 1 -17.6939 40.8679 TC 2 344
1979035S19042 1979 8 SI MM DORA 1979-02-10 06:00:00 TS -19.8000 41.6000 reunion main 264 264 O____P___OO_P_ jtwc_sh SH121979 -19.8000 41.6000 -1 -17.4837 40.8836 99 -19.8000 41.6000 TC 25 -19.8000 41.6000 1 -17.4837 40.8836 TC 5 0
1979035S19042 1979 8 SI MM DORA 1979-02-10 09:00:00 TS -19.4497 41.6265 main 274 251 P____P___PP_P_ SH121979 -19.4600 41.6199 -1 -17.2837 40.9353 99 -19.4600 41.6199 TC 25 -19.4293 41.6398 1 -17.2837 40.9353 TC 8 7
1979035S19042 1979 8 SI MM DORA 1979-02-10 12:00:00 TS -18.9866 41.7059 reunion main 251 232 O____P___OP_P_ jtwc_sh SH121979 -19.0000 41.7000 -1 -17.0994 41.0323 99 -19.0000 41.7000 TC 25 -18.9598 41.7176 1 -17.0994 41.0323 TC 10 11
1979035S19042 1979 8 SI MM DORA 1979-02-10 15:00:00 TS -18.4868 41.8256 main 232 216 P____P___PP_P_ SH121979 -18.5000 41.8200 -1 -16.9363 41.1841 99 -18.5000 41.8200 TC 25 -18.4604 41.8366 1 -16.9363 41.1841 TC 12 10
1979035S19042 1979 8 SI MM DORA 1979-02-10 18:00:00 TS -17.8286 41.9143 reunion main 214 191 O____O___OO_O_ jtwc_sh SH121979 -18.0000 42.0000 -1 -16.8000 41.4000 99 9.90000 -18.0000 42.0000 TC 25 -18.0000 42.0000 1 -16.8000 41.4000 TC 25 12 12
1979035S19042 1979 8 SI MM DORA 1979-02-10 21:00:00 TS -17.3494 42.0870 main 192 175 P____P___PP_P_ SH121979 -17.5475 42.2351 -1 -16.7045 41.6787 99 -17.5475 42.2351 TC 25 -17.6099 42.2155 1 -16.7045 41.6787 TC 25 9 26
1979035S19042 1979 8 SI MM DORA 1979-02-11 00:00:00 TS -17.0173 42.3268 reunion main 178 158 O____O___OP_O_ jtwc_sh SH121979 -17.2000 42.5000 -1 -16.6000 42.0000 99 9.90000 -17.2000 42.5000 TC 25 -17.2778 42.4708 1 -16.6000 42.0000 TC 25 8 40
1979035S19042 1979 8 SI MM DORA 1979-02-11 03:00:00 TS -16.7644 42.6002 main 158 138 P____P___PP_P_ SH121979 -16.9750 42.7574 -1 -16.4201 42.3727 99 -16.9750 42.7574 TC 25 -17.0318 42.7406 1 -16.4201 42.3727 TC 25 6 56
1979035S19042 1979 8 SI MM DORA 1979-02-11 06:00:00 TS -16.6600 42.8800 reunion main 138 120 O____O___OO_O_ jtwc_sh SH121979 -16.9000 43.0000 -1 -16.3000 42.7000 6 9.90000 -16.9000 43.0000 TC 25 -16.9000 43.0000 1 -16.3000 42.7000 TC 25 5 83
1979035S19042 1979 8 SI MM DORA 1979-02-11 09:00:00 TS -16.7073 43.0779 main 120 105 P____P___PP_P_ SH121979 -16.9550 43.2074 -1 -16.3624 42.8724 6 -16.9550 43.2074 TC 25 -16.9018 43.2300 1 -16.3624 42.8724 TC 25 4 117
1979035S19042 1979 8 SI MM DORA 1979-02-11 12:00:00 TS -16.8430 43.2488 reunion main 105 77 O____O___OP_O_ jtwc_sh SH121979 -17.1000 43.4000 -1 -16.5000 43.0000 99 9.90000 -17.1000 43.4000 TC 25 -17.0150 43.4442 1 -16.5000 43.0000 TC 25 4 127
1979035S19042 1979 8 SI MM DORA 1979-02-11 15:00:00 TS -16.9761 43.4503 main 67 54 P____P___PP_P_ SH121979 -17.2425 43.6075 -1 -16.6000 43.2000 99 -17.2425 43.6075 TC 25 -17.1956 43.6364 1 -16.6000 43.2000 TC 25 5 127
1979035S19042 1979 8 SI MM DORA 1979-02-11 18:00:00 TS -17.1200 43.6400 reunion main 54 30 O____O___OO_O_ jtwc_sh SH121979 -17.4000 43.8000 -1 -16.7000 43.4000 99 9.90000 -17.4000 43.8000 TC 25 -17.4000 43.8000 1 -16.7000 43.4000 TC 25 4 129
1979035S19042 1979 8 SI MM DORA 1979-02-11 21:00:00 TS -17.2505 43.8010 main 24 10 P____P___PP_P_ SH121979 -17.5425 43.9725 -1 -16.8075 43.5575 99 -17.5425 43.9725 TC 25 -17.5524 43.9450 1 -16.8075 43.5575 TC 25 4 133
1979035S19042 1979 8 SI MM DORA 1979-02-12 00:00:00 TS -17.3840 43.9320 reunion main 10 0 O____O___OP_O_ jtwc_sh SH121979 -17.7000 44.1000 -1 -16.9000 43.7000 99 9.90000 -17.7000 44.1000 TC 25 -17.7199 44.0600 1 -16.9000 43.7000 TC 25 3 140
1979035S19042 1979 8 SI MM DORA 1979-02-12 03:00:00 TS -17.4964 44.0172 main 0 0 P____P___PP_P_ SH121979 -17.8850 44.1725 -1 -16.9048 43.7979 99 -17.8850 44.1725 TC 25 -17.9025 44.1450 1 -16.9048 43.7979 TC 25 4 151
1979035S19042 1979 8 SI MM DORA 1979-02-12 06:00:00 TS -17.7333 44.1333 reunion main 0 0 O____O___OO_O_ jtwc_sh SH121979 -18.1000 44.2000 -1 -17.0000 44.0000 6 9.90000 -18.1000 44.2000 TC 25 -18.1000 44.2000 1 -17.0000 44.0000 TC 25 6 158
1979035S19042 1979 8 SI MM DORA 1979-02-12 09:00:00 TS -18.0897 44.2693 main 0 0 P____P___PP_P_ SH121979 -18.3500 44.2075 -1 -17.3280 44.4290 6 -18.3500 44.2075 TC 25 -18.3309 44.2329 1 -17.3280 44.4290 TC 25 8 166
1979035S19042 1979 8 SI MM DORA 1979-02-12 12:00:00 TS -18.4778 44.3250 reunion main 0 0 O____O___OP_O_ jtwc_sh SH121979 -18.6000 44.2000 -1 -17.8000 45.0000 6 9.90000 -18.6000 44.2000 TC 25 -18.5725 44.2377 1 -17.8000 45.0000 TC 25 7 184
1979035S19042 1979 8 SI MM DORA 1979-02-12 15:00:00 TS -18.8109 44.2078 main 0 0 P________PP___ SH121979 -18.8150 44.2000 -1 6 -18.8150 44.2000 TC 25 -18.8028 44.2235 1 TC 5 193
1979035S19042 1979 8 SI MM DORA 1979-02-12 18:00:00 TS -19.0000 44.2000 main 0 0 O________OO___ jtwc_sh SH121979 -19.0000 44.2000 -1 -19.0000 44.2000 TC 25 -19.0000 44.2000 1 4 184
1979035S19042 1979 8 SI MM DORA 1979-02-12 21:00:00 TS -19.1617 44.2031 main 10 10 P________PP___ SH121979 -19.1725 44.2075 -1 -19.1725 44.2075 TC 25 -19.1400 44.1943 1 3 185
1979035S19042 1979 8 SI MM DORA 1979-02-13 00:00:00 TS -19.2817 44.1933 main 15 15 O________OP___ jtwc_sh SH121979 -19.3000 44.2000 -1 -19.3000 44.2000 TC 25 -19.2450 44.1800 1 2 0
1979035S19042 1979 8 SI MM DORA 1979-02-13 03:00:00 TS -19.3524 44.1852 main 23 23 P________PP___ SH121979 -19.3649 44.2025 -1 -19.3649 44.2025 TC 25 -19.3275 44.1506 1 1 217
1979035S19042 1979 8 SI MM DORA 1979-02-13 06:00:00 TS -19.4000 44.1000 main 30 30 O________OO___ jtwc_sh SH121979 -19.4000 44.1000 -1 -19.4000 44.1000 TC 25 -19.4000 44.1000 1 3 249
1979035S19042 1979 8 SI MM DORA 1979-02-13 09:00:00 TS -19.4621 43.8846 main 53 53 P________PP___ SH121979 -19.4500 43.8100 -1 -19.4500 43.8100 TC 25 -19.4862 44.0337 1 5 256
1979035S19042 1979 8 SI MM DORA 1979-02-13 12:00:00 TS -19.5216 43.5817 main 77 77 O________OP___ jtwc_sh SH121979 -19.5000 43.4000 -1 -19.5000 43.4000 TC 25 -19.5649 43.9450 1 6 260
1979035S19042 1979 8 SI MM DORA 1979-02-13 15:00:00 TS -19.5789 43.2096 main 118 118 P________PP___ SH121979 -19.5503 42.8976 -1 -19.5503 42.8976 TC 25 -19.6362 43.8337 1 7 260
1979035S19042 1979 8 SI MM DORA 1979-02-13 18:00:00 TS -19.6333 42.9000 main 147 147 O________OO___ jtwc_sh SH121979 -19.6000 42.5000 -1 -19.6000 42.5000 TC 25 -19.7000 43.7000 1 4 256
1979035S19042 1979 8 SI MM DORA 1979-02-13 21:00:00 TS -19.6804 42.7782 main 161 161 P________PP___ SH121979 -19.6423 42.3950 -1 -19.6423 42.3950 TC 25 -19.7567 43.5447 1 1 226
1979035S19042 1979 8 SI MM DORA 1979-02-14 00:00:00 TS -19.7359 42.7909 main 161 147 O________OP___ jtwc_sh SH121979 -19.7000 42.5000 -1 -19.7000 42.5000 TC 25 -19.8077 43.3726 1 2 144
1979035S19042 1979 8 SI MM DORA 1979-02-14 03:00:00 TS -19.8118 42.8780 main 147 132 P________PP___ SH121979 -19.7902 42.7224 -1 -19.7902 42.7224 TC 25 -19.8549 43.1891 1 3 130
1979035S19042 1979 8 SI MM DORA 1979-02-14 06:00:00 TS -19.9000 43.0000 main 132 O________OO___ jtwc_sh SH121979 -19.9000 43.0000 -1 -19.9000 43.0000 TC 25 -19.9000 43.0000 1 3 128

About IBTrACS Database

This database is a web-friendly format of International Best Track Archive for Climate Stewardship (IBTrACS), a global best track data archive curated by NOAA dating back to 1842.

Updated: 2021-12-03